createdAt,value
2023-05-08T00:02:24.457Z,44.30
2023-05-08T00:04:51.534Z,47.03
2023-05-08T00:07:18.309Z,46.00
2023-05-08T00:09:45.152Z,46.92
2023-05-08T00:12:13.191Z,48.70
2023-05-08T00:14:40.079Z,50.90
2023-05-08T00:17:06.977Z,47.13
2023-05-08T00:19:35.136Z,47.58
2023-05-08T00:22:02.021Z,44.28
2023-05-08T00:24:29.022Z,43.97
2023-05-08T00:26:56.397Z,42.47
2023-05-08T00:29:23.184Z,43.28
2023-05-08T00:31:52.712Z,47.85
2023-05-08T00:34:19.676Z,47.38
2023-05-08T00:36:46.970Z,45.47
2023-05-08T00:39:13.859Z,49.63
2023-05-08T00:41:41.010Z,46.92
2023-05-08T00:44:09.438Z,43.90
2023-05-08T00:46:36.936Z,45.25
2023-05-08T00:49:05.202Z,48.33
2023-05-08T00:51:34.255Z,45.38
2023-05-08T00:54:01.312Z,49.90
2023-05-08T00:56:29.825Z,49.70
2023-05-08T00:58:58.651Z,50.90
2023-05-08T01:01:25.650Z,45.90
2023-05-08T01:03:53.241Z,47.63
2023-05-08T01:06:20.545Z,42.25
2023-05-08T01:08:50.786Z,47.88
2023-05-08T01:11:22.151Z,49.08
2023-05-08T01:13:55.512Z,41.65
2023-05-08T01:16:47.191Z,48.35
2023-05-08T01:19:55.133Z,46.75
2023-05-08T01:22:46.476Z,46.22
2023-05-08T01:25:50.807Z,49.05
2023-05-08T01:28:57.360Z,49.25
2023-05-08T01:31:56.278Z,50.85
2023-05-08T01:34:26.833Z,45.65
2023-05-08T01:37:01.462Z,50.53
2023-05-08T01:40:02.969Z,87.78
2023-05-08T01:42:46.549Z,84.65
2023-05-08T01:45:30.502Z,112.18
2023-05-08T01:48:35.556Z,82.05
2023-05-08T01:51:12.195Z,122.18
2023-05-08T01:53:44.225Z,84.15
2023-05-08T01:56:22.332Z,91.65
2023-05-08T01:58:52.072Z,59.53
2023-05-08T02:01:25.697Z,60.47
2023-05-08T02:03:54.683Z,53.35
2023-05-08T02:06:22.871Z,55.85
2023-05-08T02:08:51.908Z,55.33
2023-05-08T02:11:20.431Z,57.45
2023-05-08T02:13:49.468Z,52.53
2023-05-08T02:16:19.164Z,57.20
2023-05-08T02:18:56.551Z,56.50
2023-05-08T02:21:24.464Z,49.47
2023-05-08T02:23:52.321Z,52.92
2023-05-08T02:26:21.770Z,55.08
2023-05-08T02:28:53.331Z,58.35
2023-05-08T02:31:21.574Z,56.25
2023-05-08T02:33:49.426Z,60.65
2023-05-08T02:36:18.576Z,62.20
2023-05-08T02:38:51.143Z,59.13
2023-05-08T02:41:22.375Z,55.67
2023-05-08T02:43:52.174Z,60.08
2023-05-08T02:46:22.760Z,65.28
2023-05-08T02:48:58.656Z,68.40
2023-05-08T02:51:35.110Z,60.58
2023-05-08T02:54:18.219Z,60.95
2023-05-08T02:56:55.956Z,63.60
2023-05-08T03:02:03.252Z,64.57
2023-05-08T03:04:53.504Z,61.33
2023-05-08T03:07:23.299Z,68.07
2023-05-08T03:09:56.800Z,65.55
2023-05-08T03:12:26.887Z,57.60
2023-05-08T03:15:02.089Z,65.22
2023-05-08T03:17:32.693Z,63.00
2023-05-08T03:20:03.809Z,65.03
2023-05-08T03:22:32.650Z,66.20
2023-05-08T03:25:02.979Z,64.25
2023-05-08T03:27:30.787Z,61.33
2023-05-08T03:29:59.764Z,62.58
2023-05-08T03:32:28.478Z,63.97
2023-05-08T03:34:58.859Z,56.67
2023-05-08T03:37:28.422Z,64.35
2023-05-08T03:39:58.485Z,58.05
2023-05-08T03:42:27.419Z,61.58
2023-05-08T03:44:54.602Z,66.75
2023-05-08T03:47:22.894Z,61.40
2023-05-08T03:49:50.690Z,50.13
2023-05-08T03:52:18.442Z,51.22
2023-05-08T03:54:45.826Z,47.80
2023-05-08T03:57:13.760Z,43.90
2023-05-08T04:00:15.052Z,42.35
2023-05-08T04:02:56.405Z,42.83
2023-05-08T04:05:34.855Z,44.70
2023-05-08T04:08:11.073Z,44.22
2023-05-08T04:10:44.716Z,43.95
2023-05-08T04:13:19.086Z,42.08
2023-05-08T04:16:00.963Z,41.78
2023-05-08T04:18:34.779Z,36.97
2023-05-08T04:21:06.713Z,36.92
2023-05-08T04:23:35.489Z,36.20
2023-05-08T04:26:05.550Z,34.22
2023-05-08T04:28:33.825Z,33.00
2023-05-08T04:31:02.766Z,36.42
2023-05-08T04:33:30.313Z,33.83
2023-05-08T04:36:01.220Z,40.15
2023-05-08T04:38:28.449Z,38.63
2023-05-08T04:40:55.586Z,38.20
2023-05-08T04:43:25.747Z,37.92
2023-05-08T04:45:53.039Z,38.03
2023-05-08T04:48:20.137Z,36.50
2023-05-08T04:50:46.965Z,40.08
2023-05-08T04:53:15.667Z,38.83
2023-05-08T04:55:42.595Z,33.25
2023-05-08T04:58:12.898Z,37.92
2023-05-08T05:00:39.589Z,37.25
2023-05-08T05:03:06.477Z,38.08
2023-05-08T05:05:37.655Z,37.92
2023-05-08T05:08:06.173Z,39.13
2023-05-08T05:10:33.113Z,39.55
2023-05-08T05:13:01.258Z,44.45
2023-05-08T05:15:28.408Z,43.55
2023-05-08T05:17:55.585Z,42.60
2023-05-08T05:20:22.775Z,82.63
2023-05-08T05:22:49.688Z,70.40
2023-05-08T05:25:17.237Z,59.03
2023-05-08T05:27:44.859Z,108.28
2023-05-08T05:30:12.659Z,65.25
2023-05-08T05:32:40.020Z,75.78
2023-05-08T05:35:08.401Z,126.25
2023-05-08T05:37:35.960Z,85.72
2023-05-08T05:40:03.352Z,71.28
2023-05-08T05:42:32.505Z,131.68
2023-05-08T05:44:59.418Z,79.00
2023-05-08T05:47:27.110Z,66.00
2023-05-08T05:49:54.322Z,52.72
2023-05-08T05:52:22.228Z,65.40
2023-05-08T05:54:49.222Z,53.65
2023-05-08T05:57:16.048Z,72.38
2023-05-08T05:59:43.598Z,45.15
2023-05-08T06:02:14.620Z,58.13
2023-05-08T06:04:41.429Z,46.13
2023-05-08T06:07:08.650Z,61.88
2023-05-08T06:09:39.295Z,65.03
2023-05-08T06:12:06.334Z,55.90
2023-05-08T06:14:35.379Z,49.92
2023-05-08T06:17:02.137Z,53.30
2023-05-08T06:19:29.425Z,54.10
2023-05-08T06:21:56.332Z,55.15
2023-05-08T06:24:22.962Z,53.75
2023-05-08T06:26:49.682Z,62.75
2023-05-08T06:29:16.319Z,54.72
2023-05-08T06:31:43.068Z,71.50
2023-05-08T06:34:09.704Z,73.00
2023-05-08T06:36:36.758Z,78.93
2023-05-08T06:39:07.517Z,86.22
2023-05-08T06:41:34.179Z,81.80
2023-05-08T06:44:00.911Z,78.90
2023-05-08T06:46:27.954Z,81.32
2023-05-08T06:48:54.760Z,82.50
2023-05-08T06:51:23.321Z,80.90
2023-05-08T06:53:50.128Z,78.47
2023-05-08T06:56:16.838Z,79.88
2023-05-08T06:58:46.497Z,86.45
2023-05-08T07:01:20.519Z,82.93
2023-05-08T07:03:47.368Z,82.30
2023-05-08T07:06:14.095Z,81.00
2023-05-08T07:08:40.840Z,83.38
2023-05-08T07:11:10.154Z,83.57
2023-05-08T07:13:37.246Z,79.55
2023-05-08T07:16:11.670Z,84.72
2023-05-08T07:18:38.592Z,82.82
2023-05-08T07:21:05.310Z,83.10
2023-05-08T07:23:32.140Z,81.28
2023-05-08T07:25:59.505Z,82.60
2023-05-08T07:28:27.033Z,76.03
2023-05-08T07:30:53.794Z,81.40
2023-05-08T07:33:21.029Z,81.05
2023-05-08T07:35:47.678Z,78.93
2023-05-08T07:38:14.403Z,81.95
2023-05-08T07:40:42.707Z,75.40
2023-05-08T07:43:09.822Z,69.90
2023-05-08T07:45:36.868Z,76.43
2023-05-08T07:48:03.775Z,68.40
2023-05-08T07:50:30.571Z,68.65
2023-05-08T07:52:57.280Z,69.88
2023-05-08T07:55:24.142Z,68.10
2023-05-08T07:57:51.086Z,72.25
2023-05-08T08:00:18.286Z,74.45
2023-05-08T08:02:46.014Z,77.60
2023-05-08T08:05:13.289Z,89.38
2023-05-08T08:07:40.307Z,94.20
2023-05-08T08:10:08.034Z,97.70
2023-05-08T08:12:34.885Z,101.30
2023-05-08T08:15:01.810Z,89.93
2023-05-08T08:17:29.158Z,88.80
2023-05-08T08:19:56.914Z,83.80
2023-05-08T08:22:24.519Z,62.25
2023-05-08T08:24:54.097Z,58.83
2023-05-08T08:27:21.979Z,52.78
2023-05-08T08:29:48.951Z,49.63
2023-05-08T08:32:15.972Z,49.80
2023-05-08T08:34:42.874Z,48.35
2023-05-08T08:37:09.726Z,48.67
2023-05-08T08:39:36.575Z,48.70
2023-05-08T08:42:04.292Z,70.40
2023-05-08T08:44:31.010Z,59.35
2023-05-08T08:47:00.648Z,55.42
2023-05-08T08:49:41.418Z,56.45
2023-05-08T08:52:31.841Z,64.07
2023-05-08T08:55:17.901Z,56.08
2023-05-08T08:58:47.974Z,34.00
2023-05-08T09:01:17.927Z,40.83
2023-05-08T09:03:46.093Z,38.58
2023-05-08T09:06:14.277Z,33.53
2023-05-08T09:08:41.360Z,37.25
2023-05-08T09:11:08.252Z,37.33
2023-05-08T09:13:35.170Z,37.17
2023-05-08T09:16:02.286Z,34.95
2023-05-08T09:18:29.342Z,39.00
2023-05-08T09:20:57.251Z,36.47
2023-05-08T09:23:24.656Z,37.35
2023-05-08T09:25:51.845Z,38.22
2023-05-08T09:28:23.441Z,36.10
2023-05-08T09:30:55.738Z,37.60
2023-05-08T09:33:25.698Z,36.03
2023-05-08T09:35:52.721Z,31.02
2023-05-08T09:38:39.301Z,32.80
2023-05-08T09:41:11.680Z,35.17
2023-05-08T09:43:39.243Z,37.92
2023-05-08T09:46:35.730Z,30.00
2023-05-08T09:49:04.122Z,30.77
2023-05-08T09:51:33.331Z,32.58
2023-05-08T09:54:00.680Z,29.52
2023-05-08T09:56:34.712Z,40.35
2023-05-08T09:59:04.486Z,25.27
2023-05-08T10:01:35.012Z,25.73
2023-05-08T10:04:03.792Z,19.30
2023-05-08T10:06:30.522Z,18.90
2023-05-08T10:09:42.414Z,17.63
2023-05-08T10:12:14.467Z,16.85
2023-05-08T10:14:44.712Z,21.08
2023-05-08T10:17:16.226Z,20.38
2023-05-08T10:19:46.352Z,19.23
2023-05-08T10:22:16.160Z,17.85
2023-05-08T10:24:44.381Z,18.33
2023-05-08T10:27:20.443Z,16.13
2023-05-08T10:29:54.523Z,15.23
2023-05-08T10:32:25.026Z,19.10
2023-05-08T10:35:00.839Z,23.30
2023-05-08T10:37:31.444Z,17.17
2023-05-08T10:39:58.857Z,16.92
2023-05-08T10:42:26.683Z,15.35
2023-05-08T10:44:54.622Z,16.85
2023-05-08T10:47:45.976Z,22.08
2023-05-08T10:50:34.100Z,23.65
2023-05-08T10:53:11.880Z,17.65
2023-05-08T10:55:42.279Z,17.33
2023-05-08T10:58:28.994Z,23.08
2023-05-08T11:01:07.410Z,23.23
2023-05-08T11:03:50.726Z,28.85
2023-05-08T11:06:41.024Z,28.83
2023-05-08T11:09:08.630Z,26.70
2023-05-08T11:11:43.934Z,28.58
2023-05-08T11:14:15.260Z,27.83
2023-05-08T11:16:54.638Z,21.38
2023-05-08T11:19:23.441Z,22.55
2023-05-08T11:22:24.289Z,23.27
2023-05-08T11:25:09.325Z,19.02
2023-05-08T11:27:51.364Z,16.55
2023-05-08T11:30:18.797Z,17.15
2023-05-08T11:33:16.585Z,19.95
2023-05-08T11:35:52.378Z,21.08
2023-05-08T11:38:36.420Z,19.75
2023-05-08T11:41:24.128Z,22.98
2023-05-08T11:43:56.947Z,26.52
2023-05-08T11:46:24.173Z,22.45
2023-05-08T11:49:00.822Z,31.83
2023-05-08T11:51:32.665Z,22.88
2023-05-08T11:54:03.573Z,21.58
2023-05-08T11:56:31.516Z,23.67
2023-05-08T11:59:06.192Z,20.42
2023-05-08T12:01:33.197Z,21.08
2023-05-08T12:04:04.484Z,19.77
2023-05-08T12:06:32.648Z,19.92
2023-05-08T12:09:05.044Z,19.15
2023-05-08T12:11:32.478Z,19.38
2023-05-08T12:13:59.325Z,16.45
2023-05-08T12:16:26.397Z,19.45
2023-05-08T12:18:56.201Z,16.45
2023-05-08T12:21:23.354Z,18.25
2023-05-08T12:23:51.099Z,17.83
2023-05-08T12:26:24.328Z,17.40
2023-05-08T12:28:57.371Z,16.77
2023-05-08T12:31:24.432Z,13.90
2023-05-08T12:33:52.490Z,13.15
2023-05-08T12:36:19.604Z,12.77
2023-05-08T12:38:46.737Z,14.13
2023-05-08T12:41:13.974Z,13.95
2023-05-08T12:43:40.746Z,14.95
2023-05-08T12:46:11.762Z,15.73
2023-05-08T12:48:38.603Z,14.88
2023-05-08T12:51:05.722Z,12.80
2023-05-08T12:53:33.638Z,13.40
2023-05-08T12:56:03.850Z,13.57
2023-05-08T12:58:35.983Z,11.60
2023-05-08T13:01:15.705Z,13.48
2023-05-08T13:03:43.010Z,12.40
2023-05-08T13:06:21.300Z,13.85
2023-05-08T13:08:53.984Z,14.68
2023-05-08T13:11:33.299Z,16.67
2023-05-08T13:14:00.481Z,16.50
2023-05-08T13:16:27.610Z,19.15
2023-05-08T13:18:54.621Z,18.55
2023-05-08T13:21:21.462Z,19.42
2023-05-08T13:23:48.375Z,21.70
2023-05-08T13:26:19.326Z,18.92
2023-05-08T13:28:47.263Z,28.65
2023-05-08T13:31:14.292Z,22.83
2023-05-08T13:33:42.446Z,20.27
2023-05-08T13:36:09.385Z,23.83
2023-05-08T13:38:36.447Z,25.15
2023-05-08T13:41:03.777Z,24.75
2023-05-08T13:43:31.222Z,26.95
2023-05-08T13:45:58.635Z,28.15
2023-05-08T13:48:25.336Z,25.60
2023-05-08T13:50:52.352Z,29.73
2023-05-08T13:53:19.478Z,29.67
2023-05-08T13:55:46.398Z,32.47
2023-05-08T13:58:13.115Z,34.00
2023-05-08T14:00:40.153Z,32.05
2023-05-08T14:03:07.400Z,36.10
2023-05-08T14:05:35.363Z,38.72
2023-05-08T14:08:02.114Z,38.45
2023-05-08T14:10:29.052Z,47.90
2023-05-08T14:12:56.025Z,42.35
2023-05-08T14:15:26.905Z,42.58
2023-05-08T14:18:00.190Z,45.67
2023-05-08T14:20:29.133Z,44.35
2023-05-08T14:22:59.741Z,40.30
2023-05-08T14:25:27.108Z,41.33
2023-05-08T14:27:55.164Z,38.90
2023-05-08T14:30:22.116Z,42.50
2023-05-08T14:32:49.170Z,37.80
2023-05-08T14:35:16.462Z,36.28
2023-05-08T14:37:43.339Z,31.55
2023-05-08T14:40:10.199Z,30.80
2023-05-08T14:42:38.673Z,30.73
2023-05-08T14:45:06.107Z,27.95
2023-05-08T14:47:33.939Z,30.17
2023-05-08T14:50:00.967Z,28.65
2023-05-08T14:52:27.712Z,27.17
2023-05-08T14:54:54.953Z,26.08
2023-05-08T14:57:22.340Z,27.55
2023-05-08T14:59:55.005Z,28.33
2023-05-08T15:02:23.491Z,28.52
2023-05-08T15:04:50.561Z,27.00
2023-05-08T15:07:17.173Z,27.23
2023-05-08T15:09:44.040Z,27.88
2023-05-08T15:12:10.764Z,31.65
2023-05-08T15:14:37.643Z,24.50
2023-05-08T15:17:04.530Z,23.63
2023-05-08T15:19:31.652Z,22.98
2023-05-08T15:21:58.319Z,22.33
2023-05-08T15:24:25.151Z,26.20
2023-05-08T15:26:51.893Z,24.10
2023-05-08T15:29:19.966Z,25.92
2023-05-08T15:31:46.910Z,23.15
2023-05-08T15:34:15.177Z,22.38
2023-05-08T15:36:43.251Z,20.25
2023-05-08T15:39:10.155Z,18.13
2023-05-08T15:41:37.815Z,24.98
2023-05-08T15:44:04.599Z,20.17
2023-05-08T15:46:31.605Z,21.85
2023-05-08T15:49:00.625Z,21.42
2023-05-08T15:51:29.645Z,22.63
2023-05-08T15:53:56.586Z,19.45
2023-05-08T15:56:25.819Z,21.27
2023-05-08T15:58:53.212Z,21.75
2023-05-08T16:01:20.924Z,20.30
2023-05-08T16:03:47.758Z,19.73
2023-05-08T16:06:14.504Z,24.70
2023-05-08T16:08:41.506Z,23.45
2023-05-08T16:11:08.418Z,21.73
2023-05-08T16:13:35.210Z,19.95
2023-05-08T16:16:06.591Z,23.27
2023-05-08T16:18:33.699Z,19.02
2023-05-08T16:21:00.428Z,17.20
2023-05-08T16:23:27.513Z,21.02
2023-05-08T16:25:54.613Z,23.75
2023-05-08T16:28:21.428Z,26.65
2023-05-08T16:30:48.191Z,25.15
2023-05-08T16:33:15.166Z,26.35
2023-05-08T16:35:42.091Z,26.40
2023-05-08T16:38:10.353Z,24.40
2023-05-08T16:40:37.118Z,25.83
2023-05-08T16:43:03.990Z,23.70
2023-05-08T16:45:31.111Z,25.83
2023-05-08T16:47:57.881Z,30.95
2023-05-08T16:50:24.833Z,27.75
2023-05-08T16:52:54.386Z,22.15
2023-05-08T16:55:21.173Z,27.52
2023-05-08T16:57:47.827Z,30.00
2023-05-08T17:00:15.046Z,27.08
2023-05-08T17:02:42.831Z,22.95
2023-05-08T17:05:09.829Z,24.23
2023-05-08T17:07:36.646Z,23.67
2023-05-08T17:10:03.957Z,27.90
2023-05-08T17:12:30.949Z,26.20
2023-05-08T17:14:57.650Z,23.75
2023-05-08T17:17:24.340Z,26.25
2023-05-08T17:19:51.513Z,30.95
2023-05-08T17:22:20.774Z,29.27
2023-05-08T17:24:47.557Z,30.67
2023-05-08T17:27:14.271Z,28.30
2023-05-08T17:29:41.029Z,29.50
2023-05-08T17:32:08.228Z,29.25
2023-05-08T17:34:35.103Z,29.95
2023-05-08T17:37:02.059Z,25.83
2023-05-08T17:39:29.035Z,25.98
2023-05-08T17:41:56.859Z,24.08
2023-05-08T17:44:23.662Z,14.00
2023-05-08T17:46:51.742Z,13.75
2023-05-08T17:49:19.400Z,11.77
2023-05-08T17:51:46.831Z,10.43
2023-05-08T17:54:13.564Z,12.55
2023-05-08T17:56:41.521Z,9.50
2023-05-08T17:59:08.550Z,10.85
2023-05-08T18:01:35.359Z,8.45
2023-05-08T18:04:02.986Z,13.65
2023-05-08T18:06:29.668Z,11.82
2023-05-08T18:08:56.416Z,9.82
2023-05-08T18:11:26.544Z,10.57
2023-05-08T18:13:54.935Z,12.40
2023-05-08T18:16:22.564Z,7.38
2023-05-08T18:18:50.664Z,8.27
2023-05-08T18:21:17.875Z,8.65
2023-05-08T18:23:44.748Z,7.95
2023-05-08T18:26:15.652Z,8.88
2023-05-08T18:28:42.637Z,8.57
2023-05-08T18:31:09.979Z,7.10
2023-05-08T18:33:44.102Z,9.48
2023-05-08T18:36:11.058Z,7.30
2023-05-08T18:38:38.111Z,10.00
2023-05-08T18:41:06.336Z,12.55
2023-05-08T18:43:33.564Z,12.38
2023-05-08T18:46:00.867Z,11.70
2023-05-08T18:48:27.843Z,10.70
2023-05-08T18:50:58.649Z,11.60
2023-05-08T18:53:25.734Z,11.25
2023-05-08T18:56:02.699Z,9.55
2023-05-08T18:58:29.469Z,13.40
2023-05-08T19:00:59.309Z,10.73
2023-05-08T19:03:26.530Z,12.90
2023-05-08T19:05:54.840Z,12.32
2023-05-08T19:08:21.694Z,8.23
2023-05-08T19:10:48.587Z,10.20
2023-05-08T19:13:16.504Z,11.48
2023-05-08T19:15:43.260Z,13.43
2023-05-08T19:18:10.581Z,7.32
2023-05-08T19:20:37.508Z,10.32
2023-05-08T19:23:04.337Z,10.15
2023-05-08T19:25:31.503Z,10.80
2023-05-08T19:27:59.249Z,10.38
2023-05-08T19:30:27.550Z,11.45
2023-05-08T19:32:54.558Z,11.57
2023-05-08T19:35:21.426Z,11.07
2023-05-08T19:37:48.203Z,8.30
2023-05-08T19:40:16.497Z,11.02
2023-05-08T19:42:46.481Z,10.93
2023-05-08T19:45:13.516Z,10.00
2023-05-08T19:47:40.314Z,9.77
2023-05-08T19:50:22.091Z,6.35
2023-05-08T19:52:49.207Z,7.28
2023-05-08T19:55:17.029Z,8.32
2023-05-08T19:57:44.342Z,8.93
2023-05-08T20:00:17.306Z,8.43
2023-05-08T20:02:44.187Z,8.48
2023-05-08T20:07:42.700Z,6.82
2023-05-08T20:10:09.684Z,9.52
2023-05-08T20:12:36.897Z,7.63
2023-05-08T20:15:04.006Z,10.25
2023-05-08T20:17:30.812Z,5.88
2023-05-08T20:20:01.860Z,9.82
2023-05-08T20:22:28.621Z,6.65
2023-05-08T20:24:55.896Z,7.82
2023-05-08T20:27:23.415Z,7.47
2023-05-08T20:29:50.713Z,7.63
2023-05-08T20:32:23.506Z,8.15
2023-05-08T20:34:51.455Z,7.38
2023-05-08T20:37:18.642Z,7.10
2023-05-08T20:39:45.798Z,7.50
2023-05-08T20:42:12.818Z,5.72
2023-05-08T20:44:40.413Z,10.05
2023-05-08T20:47:07.294Z,7.35
2023-05-08T20:49:34.182Z,3.95
2023-05-08T20:52:01.213Z,5.93
2023-05-08T20:54:30.947Z,6.53
2023-05-08T20:56:58.044Z,8.25
2023-05-08T20:59:25.191Z,9.60
2023-05-08T21:01:52.334Z,6.78
2023-05-08T21:04:19.475Z,4.22
2023-05-08T21:06:46.415Z,7.70
2023-05-08T21:09:13.783Z,4.68
2023-05-08T21:11:40.740Z,8.85
2023-05-08T21:14:07.786Z,6.90
2023-05-08T21:16:36.524Z,9.80
2023-05-08T21:19:03.472Z,8.35
2023-05-08T21:21:30.141Z,6.75
2023-05-08T21:23:57.264Z,8.18
2023-05-08T21:26:27.509Z,7.22
2023-05-08T21:28:55.017Z,8.07
2023-05-08T21:31:22.762Z,9.52
2023-05-08T21:33:49.803Z,9.77
2023-05-08T21:36:16.887Z,11.40
2023-05-08T21:38:43.940Z,12.77
2023-05-08T21:41:11.347Z,10.40
2023-05-08T21:43:38.922Z,13.80
2023-05-08T21:46:07.396Z,13.05
2023-05-08T21:48:37.225Z,14.35
2023-05-08T21:51:04.850Z,12.00
2023-05-08T21:53:31.882Z,9.65
2023-05-08T21:56:00.046Z,8.75
2023-05-08T21:58:26.779Z,6.97
2023-05-08T22:00:53.784Z,9.10
2023-05-08T22:03:21.108Z,8.93
2023-05-08T22:05:48.141Z,8.80
2023-05-08T22:08:15.170Z,8.20
2023-05-08T22:10:44.290Z,7.40
2023-05-08T22:13:12.364Z,6.15
2023-05-08T22:15:39.149Z,5.97
2023-05-08T22:18:12.010Z,8.45
2023-05-08T22:20:38.725Z,9.40
2023-05-08T22:23:05.979Z,8.32
2023-05-08T22:25:35.189Z,8.00
2023-05-08T22:28:02.430Z,9.90
2023-05-08T22:30:30.122Z,8.38
2023-05-08T22:32:58.095Z,8.05
2023-05-08T22:35:26.894Z,6.82
2023-05-08T22:37:54.142Z,9.57
2023-05-08T22:40:21.987Z,9.63
2023-05-08T22:42:51.638Z,9.18
2023-05-08T22:45:18.849Z,6.45
2023-05-08T22:47:46.184Z,5.55
2023-05-08T22:50:13.333Z,6.85
2023-05-08T22:52:40.682Z,8.75
2023-05-08T22:55:08.077Z,11.23
2023-05-08T22:57:34.955Z,8.60
2023-05-08T23:00:11.518Z,13.02
2023-05-08T23:02:38.437Z,8.50
2023-05-08T23:05:06.932Z,12.45
2023-05-08T23:07:34.135Z,10.15
2023-05-08T23:10:01.020Z,13.00
2023-05-08T23:12:27.827Z,8.43
2023-05-08T23:14:54.961Z,11.05
2023-05-08T23:17:21.760Z,11.63
2023-05-08T23:19:48.464Z,8.00
2023-05-08T23:22:15.661Z,11.65
2023-05-08T23:24:42.498Z,10.70
2023-05-08T23:27:09.389Z,12.15
2023-05-08T23:29:36.298Z,8.40
2023-05-08T23:32:03.322Z,12.18
2023-05-08T23:34:30.280Z,9.30
2023-05-08T23:37:07.495Z,8.85
2023-05-08T23:39:41.378Z,9.85
2023-05-08T23:42:09.012Z,11.18
2023-05-08T23:44:37.028Z,11.85
2023-05-08T23:47:03.810Z,12.77
2023-05-08T23:49:30.705Z,17.95
2023-05-08T23:51:57.724Z,15.80
2023-05-08T23:54:24.719Z,13.73
2023-05-08T23:56:56.790Z,15.18
2023-05-08T23:59:23.880Z,19.42
